»·PEaware :: SWA131 KBUR-KLAS

SWA131 :: KBUR-KLAS

FLIGHT INFORMATION

Flight Status: Arrived
Operator:
Southwest Airlines
More flights by this operator :: More flights under this callsign
Pilot: Mark H. (18564)
Aircraft: BOEING 737-700
(B737)
More flights by this aircraft type
Origin: KBUR Bob Hope-Burbank
United States
Destination: KLAS McCarran Intl
United States
More flights between these airports :: More routes between these airports
Route: +VNY3 DAG MISEN KEPEC6
File this flight plan on PilotEdge
Remarks: SEL / HLBJ I-5 rating
Altitude:
(Current/Filed)
330ft
Speed:
(Current/Filed)
460kts
Departed: 09-Apr-18 12:59 PM
Arrived: 09-Apr-18 01:49 PM
Distance/Time
Traveled:
194nm/0:50
Distance/Time
To Go:
Arrived

Flight Plot

Page will automatically refresh every two minutes.

Flight plan parsing failed; only flown route is shown


Map Options




Map Legend


Flown Route
Filed Route
Departure Airport
Arrival Airport
Navaid (VOR, NDB)
Fix

Horizontal Profiles

Position Reports

Time Latitude Longitude Heading Altitude Ground
Speed
09-Apr-18 12:21 34.196758 -118.351376 179 729ft 0kts
09-Apr-18 12:22 34.196758 -118.351376 179 729ft 0kts
09-Apr-18 12:23 34.196758 -118.351376 179 729ft 0kts
09-Apr-18 12:24 34.196758 -118.351376 179 729ft 0kts
09-Apr-18 12:25 34.196758 -118.351376 179 729ft 0kts
09-Apr-18 12:26 34.196758 -118.351376 179 729ft 0kts
09-Apr-18 12:27 34.196758 -118.351376 179 729ft 0kts
09-Apr-18 12:28 34.196758 -118.351376 179 729ft 0kts
09-Apr-18 12:29 34.196758 -118.351376 179 729ft 0kts
09-Apr-18 12:30 34.196758 -118.351376 179 729ft 0kts
09-Apr-18 12:31 34.196758 -118.351376 179 729ft 0kts
09-Apr-18 12:32 34.196758 -118.351376 179 729ft 0kts
09-Apr-18 12:33 34.196758 -118.351376 179 729ft 0kts
09-Apr-18 12:34 34.196758 -118.351376 179 729ft 0kts
09-Apr-18 12:35 34.196758 -118.351376 179 729ft 0kts
09-Apr-18 12:36 34.196758 -118.351376 179 729ft 0kts
09-Apr-18 12:37 34.196758 -118.351376 179 729ft 0kts
09-Apr-18 12:38 34.196758 -118.351376 179 729ft 0kts
09-Apr-18 12:39 34.196758 -118.351376 179 729ft 0kts
09-Apr-18 12:40 34.196758 -118.351376 179 729ft 0kts
09-Apr-18 12:41 34.196758 -118.351376 179 729ft 0kts
09-Apr-18 12:42 34.196758 -118.351376 179 729ft 0kts
09-Apr-18 12:43 34.196758 -118.351376 179 729ft 0kts
09-Apr-18 12:44 34.196758 -118.351376 179 729ft 0kts
09-Apr-18 12:45 34.196765 -118.351376 179 729ft 0kts
09-Apr-18 12:46 34.197140 -118.351001 270 729ft 2kts
09-Apr-18 12:47 34.197140 -118.350962 270 729ft 0kts
09-Apr-18 12:48 34.197140 -118.350962 270 729ft 0kts
09-Apr-18 12:49 34.197140 -118.350962 270 729ft 0kts
09-Apr-18 12:50 34.197140 -118.350962 270 729ft 0kts
09-Apr-18 12:51 34.197140 -118.350962 270 729ft 0kts
09-Apr-18 12:52 34.197091 -118.355063 307 729ft 3kts
09-Apr-18 12:53 34.201552 -118.356199 348 729ft 16kts
09-Apr-18 12:54 34.206809 -118.357644 346 729ft 27kts
09-Apr-18 12:55 34.211756 -118.359281 308 728ft 12kts
09-Apr-18 12:56 34.211811 -118.359363 309 729ft 0kts
09-Apr-18 12:57 34.211991 -118.359620 310 729ft 9kts
09-Apr-18 12:58 34.200751 -118.357332 166 755ft 147kts
09-Apr-18 12:59 34.158273 -118.379678 224 3183ft 213kts
09-Apr-18 13:00 34.114981 -118.435039 225 3981ft 230kts
09-Apr-18 13:01 34.111714 -118.487721 330 3943ft 217kts
09-Apr-18 13:08 34.452968 -118.313733 69 11884ft 331kts
09-Apr-18 13:09 34.487293 -118.202324 66 14705ft 366kts
09-Apr-18 13:10 34.526809 -118.089418 64 19087ft 351kts
09-Apr-18 13:11 34.565230 -117.979318 63 22575ft 361kts
09-Apr-18 13:12 34.604952 -117.864872 63 25337ft 380kts
09-Apr-18 13:13 34.647156 -117.744157 63 27777ft 397kts
09-Apr-18 13:14 34.690859 -117.618251 63 29939ft 412kts
09-Apr-18 13:15 34.735752 -117.488078 62 31901ft 424kts
09-Apr-18 13:16 34.781942 -117.353502 62 33193ft 441kts
09-Apr-18 13:17 34.830818 -117.210438 62 33217ft 468kts
09-Apr-18 13:18 34.877693 -117.072601 62 33204ft 465kts
09-Apr-18 13:19 34.926968 -116.927049 62 33195ft 465kts
09-Apr-18 13:20 34.976009 -116.781564 63 30962ft 463kts
09-Apr-18 13:21 35.024160 -116.638727 64 28436ft 448kts
09-Apr-18 13:22 35.070302 -116.500222 64 25903ft 434kts
09-Apr-18 13:23 35.124416 -116.377833 45 24334ft 398kts
09-Apr-18 13:24 35.200273 -116.280987 41 23686ft 375kts
09-Apr-18 13:25 35.271071 -116.192048 41 21344ft 356kts
09-Apr-18 13:26 35.341184 -116.103645 42 19645ft 379kts
09-Apr-18 13:27 35.415323 -116.010466 42 18215ft 370kts
09-Apr-18 13:28 35.486444 -115.920797 42 16665ft 365kts
09-Apr-18 13:29 35.555048 -115.833741 42 15316ft 352kts
09-Apr-18 13:30 35.621224 -115.749264 42 14036ft 319kts
09-Apr-18 13:31 35.680531 -115.673668 42 13032ft 294kts
09-Apr-18 13:32 35.737551 -115.600725 42 13006ft 297kts
09-Apr-18 13:33 35.813007 -115.572562 1 13011ft 289kts
09-Apr-18 13:34 35.893472 -115.567960 1 13016ft 288kts
09-Apr-18 13:35 35.970481 -115.551347 36 13001ft 295kts
09-Apr-18 13:36 36.005960 -115.456313 67 11873ft 302kts
09-Apr-18 13:37 36.029475 -115.365024 83 10878ft 275kts
09-Apr-18 13:38 36.023938 -115.273238 93 9825ft 269kts
09-Apr-18 13:39 36.015553 -115.183794 95 7923ft 259kts
09-Apr-18 13:40 36.007155 -115.097336 95 5881ft 252kts
09-Apr-18 13:41 36.000707 -115.012680 88 4999ft 232kts
09-Apr-18 13:42 36.013448 -114.952254 11 4923ft 179kts
09-Apr-18 13:43 36.059491 -114.952936 331 4915ft 159kts
09-Apr-18 13:44 36.072967 -115.002383 279 3950ft 158kts
09-Apr-18 13:45 36.073631 -115.055300 271 2928ft 146kts
09-Apr-18 13:46 36.073617 -115.108001 273 2441ft 163kts
09-Apr-18 13:47 36.073617 -115.152357 273 2123ft 41kts
09-Apr-18 13:48 36.074474 -115.155664 0 2123ft 0kts
09-Apr-18 13:49 36.077859 -115.157978 53 2123ft 13kts
09-Apr-18 13:50 36.078236 -115.153058 350 2123ft 7kts
09-Apr-18 13:51 36.078775 -115.152297 94 2123ft 0kts
09-Apr-18 13:52 36.079699 -115.151358 55 2123ft 16kts
09-Apr-18 13:53 36.081439 -115.150541 47 2123ft 16kts
09-Apr-18 13:54 36.082553 -115.150185 294 2123ft 0kts
09-Apr-18 13:55 36.082554 -115.150187 294 2123ft 0kts
09-Apr-18 13:56 36.082554 -115.150187 294 2123ft 0kts
09-Apr-18 13:57 36.082554 -115.150187 294 2123ft 0kts
09-Apr-18 13:58 36.082554 -115.150187 294 2123ft 0kts
09-Apr-18 13:59 36.082554 -115.150187 294 2123ft 0kts
09-Apr-18 14:00 36.082554 -115.150187 294 2123ft 0kts
09-Apr-18 14:01 36.082554 -115.150187 294 2123ft 0kts
09-Apr-18 14:02 36.082554 -115.150187 294 2123ft 0kts

Navigation Log

Ident Type
Flight plan parsing failed, navigation log unavailable